createdAt,value
2022-10-17T00:01:24.487Z,8.90
2022-10-17T00:04:26.844Z,8.77
2022-10-17T00:07:30.820Z,8.10
2022-10-17T00:10:33.421Z,8.75
2022-10-17T00:13:36.226Z,8.25
2022-10-17T00:16:38.558Z,7.57
2022-10-17T00:19:40.975Z,8.75
2022-10-17T00:22:43.321Z,8.63
2022-10-17T00:25:45.708Z,8.85
2022-10-17T00:28:49.430Z,8.95
2022-10-17T00:31:56.073Z,8.70
2022-10-17T00:34:58.790Z,9.15
2022-10-17T00:38:01.059Z,8.77
2022-10-17T00:41:04.168Z,7.75
2022-10-17T00:44:27.791Z,8.43
2022-10-17T00:47:31.699Z,7.93
2022-10-17T00:50:34.925Z,8.35
2022-10-17T00:53:39.437Z,8.17
2022-10-17T00:56:41.970Z,8.68
2022-10-17T00:59:47.749Z,8.90
2022-10-17T01:02:50.210Z,7.75
2022-10-17T01:05:52.745Z,8.90
2022-10-17T01:08:55.330Z,8.00
2022-10-17T01:12:16.517Z,7.97
2022-10-17T01:15:37.486Z,7.35
2022-10-17T01:18:46.269Z,8.35
2022-10-17T01:22:14.413Z,7.43
2022-10-17T01:25:36.294Z,7.67
2022-10-17T01:29:26.310Z,8.02
2022-10-17T01:32:37.362Z,7.53
2022-10-17T01:35:45.905Z,6.85
2022-10-17T01:38:53.901Z,7.05
2022-10-17T01:42:04.940Z,7.33
2022-10-17T01:45:12.800Z,7.15
2022-10-17T01:48:18.755Z,7.03
2022-10-17T01:51:26.976Z,7.13
2022-10-17T01:54:55.837Z,6.70
2022-10-17T01:58:05.721Z,6.77
2022-10-17T02:01:09.349Z,6.40
2022-10-17T02:04:14.039Z,6.68
2022-10-17T02:07:18.612Z,6.90
2022-10-17T02:10:39.788Z,6.60
2022-10-17T02:14:32.959Z,6.03
2022-10-17T02:17:49.278Z,6.03
2022-10-17T02:21:11.702Z,6.63
2022-10-17T02:24:57.887Z,6.75
2022-10-17T02:28:06.401Z,6.72
2022-10-17T02:31:26.397Z,6.00
2022-10-17T02:34:33.828Z,6.30
2022-10-17T02:37:36.706Z,6.57
2022-10-17T02:40:40.993Z,6.57
2022-10-17T02:43:45.595Z,6.40
2022-10-17T02:46:53.276Z,7.00
2022-10-17T02:49:58.580Z,6.53
2022-10-17T02:53:09.577Z,6.72
2022-10-17T02:56:18.100Z,7.18
2022-10-17T02:59:22.270Z,7.28
2022-10-17T03:02:24.868Z,6.33
2022-10-17T03:05:29.141Z,7.18
2022-10-17T03:08:31.514Z,7.05
2022-10-17T03:11:35.656Z,8.07
2022-10-17T03:14:37.987Z,6.72
2022-10-17T03:17:40.381Z,7.00
2022-10-17T03:20:43.966Z,6.72
2022-10-17T03:23:46.448Z,7.15
2022-10-17T03:26:50.165Z,6.00
2022-10-17T03:29:52.478Z,7.18
2022-10-17T03:32:57.955Z,7.07
2022-10-17T03:36:00.296Z,6.63
2022-10-17T03:39:02.728Z,7.00
2022-10-17T03:42:05.033Z,7.35
2022-10-17T03:45:07.913Z,7.85
2022-10-17T03:48:11.115Z,7.23
2022-10-17T03:51:13.735Z,7.55
2022-10-17T03:54:21.040Z,7.30
2022-10-17T03:57:23.549Z,7.57
2022-10-17T04:00:25.992Z,8.30
2022-10-17T04:03:32.441Z,6.87
2022-10-17T04:06:35.493Z,7.50
2022-10-17T04:09:37.806Z,7.40
2022-10-17T04:12:49.308Z,7.80
2022-10-17T04:15:59.730Z,7.15
2022-10-17T04:19:02.325Z,7.67
2022-10-17T04:22:09.934Z,7.38
2022-10-17T04:25:14.694Z,7.80
2022-10-17T04:28:20.493Z,8.23
2022-10-17T04:31:22.914Z,8.82
2022-10-17T04:34:42.857Z,9.40
2022-10-17T04:37:45.127Z,9.00
2022-10-17T04:40:52.953Z,9.10
2022-10-17T04:43:55.430Z,8.93
2022-10-17T04:46:58.426Z,8.85
2022-10-17T04:50:01.438Z,10.43
2022-10-17T04:53:05.464Z,10.75
2022-10-17T04:56:19.553Z,10.73
2022-10-17T04:59:21.909Z,9.73
2022-10-17T05:02:30.962Z,10.98
2022-10-17T05:05:34.546Z,11.43
2022-10-17T05:08:38.692Z,11.88
2022-10-17T05:11:42.544Z,12.88
2022-10-17T05:14:45.677Z,13.18
2022-10-17T05:17:48.901Z,12.00
2022-10-17T05:20:52.234Z,11.70
2022-10-17T05:23:55.482Z,11.38
2022-10-17T05:26:58.201Z,11.90
2022-10-17T05:30:00.557Z,11.73
2022-10-17T05:33:05.873Z,12.65
2022-10-17T05:36:08.438Z,12.47
2022-10-17T05:39:14.111Z,11.32
2022-10-17T05:42:17.454Z,12.55
2022-10-17T05:45:21.154Z,13.38
2022-10-17T05:48:24.173Z,13.23
2022-10-17T05:51:26.764Z,12.63
2022-10-17T05:54:31.643Z,12.73
2022-10-17T05:57:34.021Z,15.75
2022-10-17T06:00:37.491Z,13.65
2022-10-17T06:03:40.604Z,14.43
2022-10-17T06:06:42.934Z,16.03
2022-10-17T06:12:52.766Z,15.45
2022-10-17T06:15:56.375Z,13.02
2022-10-17T06:18:59.234Z,12.93
2022-10-17T06:22:02.633Z,11.47
2022-10-17T06:25:05.839Z,14.25
2022-10-17T06:28:08.248Z,14.00
2022-10-17T06:31:13.485Z,12.75
2022-10-17T06:34:16.711Z,11.60
2022-10-17T06:37:19.650Z,11.00
2022-10-17T06:40:22.874Z,11.48
2022-10-17T06:43:28.003Z,12.40
2022-10-17T06:46:48.876Z,11.63
2022-10-17T06:49:52.921Z,12.15
2022-10-17T06:53:07.197Z,11.37
2022-10-17T06:56:29.812Z,12.07
2022-10-17T06:59:43.938Z,12.07
2022-10-17T07:02:51.895Z,9.55
2022-10-17T07:05:55.495Z,9.13
2022-10-17T07:08:58.961Z,9.87
2022-10-17T07:12:12.919Z,9.18
2022-10-17T07:15:19.458Z,8.85
2022-10-17T07:18:27.022Z,8.40
2022-10-17T07:21:38.986Z,8.75
2022-10-17T07:25:15.237Z,7.53
2022-10-17T07:28:23.507Z,7.88
2022-10-17T07:31:27.129Z,7.18
2022-10-17T07:34:31.392Z,7.88
2022-10-17T07:37:34.482Z,7.03
2022-10-17T07:40:37.567Z,7.73
2022-10-17T07:43:41.824Z,7.25
2022-10-17T07:46:45.465Z,7.88
2022-10-17T07:49:47.920Z,7.13
2022-10-17T07:52:50.662Z,6.53
2022-10-17T07:55:53.064Z,7.17
2022-10-17T08:01:58.044Z,6.45
2022-10-17T08:05:00.359Z,6.63
2022-10-17T08:08:02.684Z,6.35
2022-10-17T08:11:07.913Z,7.03
2022-10-17T08:14:14.041Z,6.95
2022-10-17T08:17:16.289Z,6.82
2022-10-17T08:20:18.697Z,6.43
2022-10-17T08:23:21.078Z,6.80
2022-10-17T08:26:23.381Z,6.97
2022-10-17T08:29:25.689Z,6.50
2022-10-17T08:32:29.790Z,6.45
2022-10-17T08:35:32.183Z,6.22
2022-10-17T08:38:36.390Z,6.25
2022-10-17T08:42:07.195Z,6.13
2022-10-17T08:45:32.730Z,5.85
2022-10-17T08:48:42.747Z,6.30
2022-10-17T08:51:56.429Z,6.13
2022-10-17T08:54:59.694Z,7.20
2022-10-17T08:58:02.007Z,5.40
2022-10-17T09:01:06.900Z,5.22
2022-10-17T09:04:14.508Z,5.90
2022-10-17T09:07:27.964Z,5.40
2022-10-17T09:11:01.861Z,5.60
2022-10-17T09:14:32.107Z,6.07
2022-10-17T09:17:53.644Z,4.97
2022-10-17T09:21:11.250Z,5.05
2022-10-17T09:24:27.041Z,5.32
2022-10-17T09:28:06.813Z,4.80
2022-10-17T09:31:35.713Z,5.20
2022-10-17T09:34:38.055Z,5.30
2022-10-17T09:37:41.127Z,4.80
2022-10-17T09:40:44.682Z,5.07
2022-10-17T09:43:47.968Z,4.78
2022-10-17T09:47:11.775Z,4.50
2022-10-17T09:50:28.368Z,4.45
2022-10-17T09:53:35.034Z,4.47
2022-10-17T09:57:06.555Z,4.63
2022-10-17T10:00:21.642Z,4.20
2022-10-17T10:03:26.246Z,4.53
2022-10-17T10:06:28.573Z,4.40
2022-10-17T10:09:34.799Z,4.45
2022-10-17T10:12:39.640Z,4.80
2022-10-17T10:15:47.260Z,4.03
2022-10-17T10:18:51.045Z,3.80
2022-10-17T10:21:59.096Z,3.55
2022-10-17T10:25:08.669Z,4.53
2022-10-17T10:28:17.722Z,3.90
2022-10-17T10:31:36.078Z,4.85
2022-10-17T10:34:49.589Z,3.93
2022-10-17T10:37:56.989Z,3.83
2022-10-17T10:41:05.437Z,4.47
2022-10-17T10:44:14.716Z,4.35
2022-10-17T10:47:26.925Z,4.18
2022-10-17T10:50:30.485Z,4.13
2022-10-17T10:53:53.550Z,4.53
2022-10-17T10:57:00.948Z,3.88
2022-10-17T11:00:15.579Z,4.20
2022-10-17T11:03:24.011Z,4.00
2022-10-17T11:06:28.862Z,4.00
2022-10-17T11:09:41.435Z,4.55
2022-10-17T11:12:46.206Z,3.90
2022-10-17T11:16:00.657Z,4.15
2022-10-17T11:19:25.965Z,3.78
2022-10-17T11:22:32.529Z,4.10
2022-10-17T11:25:39.088Z,4.05
2022-10-17T11:28:41.441Z,4.10
2022-10-17T11:31:48.615Z,4.10
2022-10-17T11:35:01.132Z,4.18
2022-10-17T11:38:43.058Z,4.00
2022-10-17T11:41:48.048Z,4.35
2022-10-17T11:44:55.501Z,3.60
2022-10-17T11:48:05.197Z,3.88
2022-10-17T11:54:39.287Z,4.67
2022-10-17T11:57:46.694Z,3.20
2022-10-17T12:01:12.544Z,3.30
2022-10-17T12:04:56.350Z,3.15
2022-10-17T12:08:09.258Z,4.03
2022-10-17T12:11:17.796Z,3.63
2022-10-17T12:14:42.810Z,3.03
2022-10-17T12:17:46.676Z,3.55
2022-10-17T12:20:59.795Z,3.90
2022-10-17T12:24:02.095Z,3.15
2022-10-17T12:27:33.770Z,3.07
2022-10-17T12:30:36.738Z,3.58
2022-10-17T12:33:48.872Z,2.85
2022-10-17T12:36:51.248Z,3.30
2022-10-17T12:40:00.147Z,3.35
2022-10-17T12:43:15.070Z,2.87
2022-10-17T12:46:44.853Z,3.33
2022-10-17T12:49:54.413Z,2.53
2022-10-17T12:53:04.948Z,3.33
2022-10-17T12:56:07.575Z,3.33
2022-10-17T12:59:27.547Z,3.10
2022-10-17T13:02:30.985Z,3.47
2022-10-17T13:05:36.706Z,3.05
2022-10-17T13:08:44.853Z,3.13
2022-10-17T13:11:49.636Z,3.20
2022-10-17T13:14:53.205Z,2.83
2022-10-17T13:17:57.754Z,3.03
2022-10-17T13:21:01.919Z,3.17
2022-10-17T13:24:44.191Z,3.13
2022-10-17T13:27:47.082Z,2.83
2022-10-17T13:30:49.877Z,2.67
2022-10-17T13:33:56.687Z,2.58
2022-10-17T13:37:02.558Z,2.97
2022-10-17T13:40:17.580Z,2.70
2022-10-17T13:43:27.477Z,2.78
2022-10-17T13:46:38.080Z,3.40
2022-10-17T13:49:42.547Z,2.92
2022-10-17T13:52:44.858Z,2.75
2022-10-17T13:56:09.477Z,2.70
2022-10-17T13:59:26.168Z,2.95
2022-10-17T14:02:35.410Z,2.57
2022-10-17T14:06:09.890Z,2.67
2022-10-17T14:09:22.690Z,3.90
2022-10-17T14:12:25.928Z,2.72
2022-10-17T14:15:30.550Z,2.67
2022-10-17T14:18:36.664Z,2.83
2022-10-17T14:21:44.435Z,3.17
2022-10-17T14:24:47.477Z,2.80
2022-10-17T14:28:04.157Z,2.42
2022-10-17T14:31:15.554Z,3.10
2022-10-17T14:34:24.468Z,2.33
2022-10-17T14:37:47.789Z,2.97
2022-10-17T14:41:15.298Z,2.65
2022-10-17T14:44:30.179Z,2.70
2022-10-17T14:47:43.662Z,2.83
2022-10-17T14:51:15.525Z,2.60
2022-10-17T14:54:22.733Z,2.50
2022-10-17T14:57:34.504Z,2.80
2022-10-17T15:00:36.770Z,3.33
2022-10-17T15:03:39.090Z,2.55
2022-10-17T15:06:41.816Z,2.47
2022-10-17T15:09:45.142Z,2.95
2022-10-17T15:12:56.202Z,2.85
2022-10-17T15:16:01.303Z,3.25
2022-10-17T15:19:03.530Z,2.88
2022-10-17T15:22:05.796Z,2.70
2022-10-17T15:25:08.553Z,2.97
2022-10-17T15:28:13.236Z,2.97
2022-10-17T15:31:18.709Z,3.05
2022-10-17T15:34:20.961Z,2.53
2022-10-17T15:37:25.070Z,2.77
2022-10-17T15:40:29.818Z,3.40
2022-10-17T15:43:32.030Z,2.90
2022-10-17T15:46:35.351Z,2.90
2022-10-17T15:49:37.659Z,3.22
2022-10-17T15:52:41.334Z,3.73
2022-10-17T15:55:43.622Z,4.10
2022-10-17T15:58:45.909Z,3.72
2022-10-17T16:01:50.829Z,3.88
2022-10-17T16:04:53.572Z,4.75
2022-10-17T16:07:57.564Z,10.87
2022-10-17T16:10:59.853Z,5.30
2022-10-17T16:14:05.590Z,6.28
2022-10-17T16:17:12.763Z,5.50
2022-10-17T16:20:15.490Z,4.85
2022-10-17T16:23:17.910Z,4.37
2022-10-17T16:26:20.466Z,4.20
2022-10-17T16:29:22.759Z,5.10
2022-10-17T16:32:25.107Z,6.22
2022-10-17T16:35:33.134Z,6.68
2022-10-17T16:38:38.954Z,5.90
2022-10-17T16:41:41.274Z,6.55
2022-10-17T16:44:43.588Z,7.68
2022-10-17T16:47:46.401Z,7.72
2022-10-17T16:50:48.675Z,8.90
2022-10-17T16:53:52.897Z,10.13
2022-10-17T16:56:57.718Z,10.32
2022-10-17T17:00:00.092Z,10.55
2022-10-17T17:03:02.365Z,9.93
2022-10-17T17:06:06.644Z,9.27
2022-10-17T17:09:09.465Z,9.53
2022-10-17T17:12:11.796Z,9.43
2022-10-17T17:15:14.224Z,10.50
2022-10-17T17:18:16.511Z,10.35
2022-10-17T17:21:18.778Z,11.10
2022-10-17T17:24:21.663Z,10.80
2022-10-17T17:27:25.194Z,10.52
2022-10-17T17:30:27.578Z,9.77
2022-10-17T17:33:30.301Z,8.75
2022-10-17T17:36:35.073Z,7.43
2022-10-17T17:39:37.488Z,6.77
2022-10-17T17:42:39.775Z,6.57
2022-10-17T17:45:42.105Z,6.40
2022-10-17T17:48:45.712Z,6.53
2022-10-17T17:51:48.051Z,6.30
2022-10-17T17:54:50.342Z,6.40
2022-10-17T17:57:52.546Z,6.07
2022-10-17T18:00:54.963Z,5.75
2022-10-17T18:04:01.567Z,6.63
2022-10-17T18:07:03.808Z,6.18
2022-10-17T18:10:06.919Z,6.20
2022-10-17T18:13:09.235Z,6.43
2022-10-17T18:16:13.416Z,5.95
2022-10-17T18:19:15.717Z,6.30
2022-10-17T18:22:18.035Z,5.72
2022-10-17T18:25:20.311Z,5.77
2022-10-17T18:28:23.198Z,5.97
2022-10-17T18:31:28.941Z,5.90
2022-10-17T18:34:31.216Z,5.07
2022-10-17T18:37:33.556Z,5.78
2022-10-17T18:40:36.034Z,5.43
2022-10-17T18:43:40.026Z,4.82
2022-10-17T18:46:42.847Z,6.80
2022-10-17T18:49:45.252Z,5.80
2022-10-17T18:52:48.474Z,6.20
2022-10-17T18:55:51.326Z,6.20
2022-10-17T18:58:54.043Z,6.35
2022-10-17T19:01:56.343Z,6.75
2022-10-17T19:04:58.772Z,5.53
2022-10-17T19:08:01.029Z,6.00
2022-10-17T19:11:18.062Z,5.80
2022-10-17T19:14:20.382Z,6.68
2022-10-17T19:17:22.617Z,6.88
2022-10-17T19:20:24.902Z,7.32
2022-10-17T19:23:27.209Z,6.93
2022-10-17T19:26:32.348Z,7.30
2022-10-17T19:29:34.586Z,6.85
2022-10-17T19:32:37.681Z,6.82
2022-10-17T19:35:41.379Z,6.25
2022-10-17T19:38:43.650Z,6.25
2022-10-17T19:41:47.477Z,7.40
2022-10-17T19:44:49.757Z,7.07
2022-10-17T19:47:52.024Z,7.13
2022-10-17T19:50:54.387Z,6.85
2022-10-17T19:54:00.372Z,6.57
2022-10-17T19:57:06.774Z,7.00
2022-10-17T20:00:12.633Z,6.50
2022-10-17T20:03:14.891Z,6.55
2022-10-17T20:06:19.111Z,8.05
2022-10-17T20:09:21.990Z,6.60
2022-10-17T20:12:24.321Z,8.03
2022-10-17T20:15:26.603Z,8.27
2022-10-17T20:18:29.144Z,7.53
2022-10-17T20:21:39.510Z,8.00
2022-10-17T20:24:41.820Z,6.82
2022-10-17T20:27:44.077Z,7.23
2022-10-17T20:30:46.542Z,7.53
2022-10-17T20:33:48.936Z,7.20
2022-10-17T20:36:51.433Z,7.07
2022-10-17T20:40:16.604Z,7.60
2022-10-17T20:43:16.027Z,7.00
2022-10-17T20:46:34.948Z,7.00
2022-10-17T20:49:38.464Z,6.93
2022-10-17T20:52:40.746Z,6.05
2022-10-17T20:55:43.039Z,6.65
2022-10-17T20:58:45.315Z,6.50
2022-10-17T21:01:47.991Z,6.18
2022-10-17T21:04:50.271Z,6.40
2022-10-17T21:07:52.561Z,6.45
2022-10-17T21:10:54.837Z,6.45
2022-10-17T21:13:59.582Z,7.30
2022-10-17T21:17:05.067Z,5.55
2022-10-17T21:20:08.241Z,6.10
2022-10-17T21:23:10.503Z,6.43
2022-10-17T21:26:13.043Z,6.07
2022-10-17T21:29:15.427Z,6.17
2022-10-17T21:32:31.908Z,6.85
2022-10-17T21:35:40.502Z,7.32
2022-10-17T21:38:44.252Z,7.10
2022-10-17T21:41:46.557Z,6.78
2022-10-17T21:44:49.560Z,6.90
2022-10-17T21:48:11.733Z,8.27
2022-10-17T21:51:16.134Z,7.10
2022-10-17T21:54:19.768Z,7.97
2022-10-17T21:57:22.048Z,9.45
2022-10-17T22:00:24.333Z,9.93
2022-10-17T22:03:26.615Z,10.60
2022-10-17T22:06:39.781Z,13.20
2022-10-17T22:09:43.003Z,12.57
2022-10-17T22:12:45.248Z,11.93
2022-10-17T22:15:47.478Z,13.97
2022-10-17T22:18:50.146Z,13.27
2022-10-17T22:21:53.219Z,13.00
2022-10-17T22:24:55.626Z,12.57
2022-10-17T22:27:57.903Z,12.82
2022-10-17T22:31:00.502Z,15.13
2022-10-17T22:34:05.119Z,16.58
2022-10-17T22:37:07.943Z,15.07
2022-10-17T22:40:10.797Z,14.93
2022-10-17T22:43:13.607Z,15.95
2022-10-17T22:46:17.027Z,16.23
2022-10-17T22:49:19.263Z,15.43
2022-10-17T22:52:21.560Z,15.85
2022-10-17T22:55:23.836Z,16.08
2022-10-17T22:58:26.998Z,21.05
2022-10-17T23:01:29.302Z,18.93
2022-10-17T23:04:31.705Z,18.02
2022-10-17T23:07:34.281Z,18.42
2022-10-17T23:10:36.599Z,19.05
2022-10-17T23:13:40.845Z,19.33
2022-10-17T23:16:43.167Z,19.17
2022-10-17T23:19:45.533Z,17.13
2022-10-17T23:22:47.925Z,18.85
2022-10-17T23:25:50.607Z,18.23
2022-10-17T23:28:54.588Z,16.25
2022-10-17T23:31:56.950Z,17.00
2022-10-17T23:34:59.262Z,17.60
2022-10-17T23:38:01.580Z,16.55
2022-10-17T23:41:04.020Z,16.83
2022-10-17T23:44:06.806Z,16.73
2022-10-17T23:47:09.073Z,15.00
2022-10-17T23:50:11.447Z,15.95
2022-10-17T23:53:13.780Z,15.90
2022-10-17T23:56:16.176Z,14.95
2022-10-17T23:59:18.380Z,15.85
